sensor_id;sensor_type;location;lat;lon;timestamp;P1;durP1;ratioP1;P2;durP2;ratioP2
66707;SDS011;53622;0.000;0.000;2023-02-28T00:00:09;2.25;;;1.30;;
66707;SDS011;53622;0.000;0.000;2023-02-28T00:02:41;1.35;;;1.20;;
66707;SDS011;53622;0.000;0.000;2023-02-28T00:05:14;1.70;;;1.40;;
66707;SDS011;53622;0.000;0.000;2023-02-28T00:07:44;2.03;;;1.25;;
66707;SDS011;53622;0.000;0.000;2023-02-28T00:10:15;1.92;;;1.20;;
66707;SDS011;53622;0.000;0.000;2023-02-28T00:12:47;1.30;;;1.20;;
66707;SDS011;53622;0.000;0.000;2023-02-28T00:15:17;1.85;;;1.52;;
66707;SDS011;53622;0.000;0.000;2023-02-28T00:17:47;1.40;;;1.30;;
66707;SDS011;53622;0.000;0.000;2023-02-28T00:20:18;1.70;;;1.60;;
66707;SDS011;53622;0.000;0.000;2023-02-28T00:22:48;1.20;;;1.10;;
66707;SDS011;53622;0.000;0.000;2023-02-28T00:25:20;1.60;;;1.30;;
66707;SDS011;53622;0.000;0.000;2023-02-28T00:27:51;1.27;;;1.17;;
66707;SDS011;53622;0.000;0.000;2023-02-28T00:30:21;3.90;;;1.50;;
66707;SDS011;53622;0.000;0.000;2023-02-28T00:32:52;1.20;;;1.10;;
66707;SDS011;53622;0.000;0.000;2023-02-28T00:35:22;2.13;;;1.23;;
66707;SDS011;53622;0.000;0.000;2023-02-28T00:37:52;2.55;;;1.50;;
66707;SDS011;53622;0.000;0.000;2023-02-28T00:40:21;1.30;;;1.20;;
66707;SDS011;53622;0.000;0.000;2023-02-28T00:42:50;1.52;;;1.30;;
66707;SDS011;53622;0.000;0.000;2023-02-28T00:45:19;1.50;;;1.40;;
66707;SDS011;53622;0.000;0.000;2023-02-28T00:47:49;2.88;;;1.55;;
66707;SDS011;53622;0.000;0.000;2023-02-28T00:50:19;1.40;;;1.30;;
66707;SDS011;53622;0.000;0.000;2023-02-28T00:52:50;2.40;;;1.17;;
66707;SDS011;53622;0.000;0.000;2023-02-28T00:55:19;2.10;;;1.40;;
66707;SDS011;53622;0.000;0.000;2023-02-28T00:57:49;1.38;;;1.20;;
66707;SDS011;53622;0.000;0.000;2023-02-28T01:00:18;1.80;;;1.40;;
66707;SDS011;53622;0.000;0.000;2023-02-28T01:02:49;2.10;;;1.50;;
66707;SDS011;53622;0.000;0.000;2023-02-28T01:05:19;1.95;;;1.35;;
66707;SDS011;53622;0.000;0.000;2023-02-28T01:07:50;1.70;;;1.42;;
66707;SDS011;53622;0.000;0.000;2023-02-28T01:10:19;1.83;;;1.65;;
66707;SDS011;53622;0.000;0.000;2023-02-28T01:12:48;1.45;;;1.35;;
66707;SDS011;53622;0.000;0.000;2023-02-28T01:15:18;1.38;;;1.27;;
66707;SDS011;53622;0.000;0.000;2023-02-28T01:17:47;1.98;;;1.63;;
66707;SDS011;53622;0.000;0.000;2023-02-28T01:20:16;1.38;;;1.27;;
66707;SDS011;53622;0.000;0.000;2023-02-28T01:22:46;1.30;;;1.20;;
66707;SDS011;53622;0.000;0.000;2023-02-28T01:25:17;2.08;;;1.55;;
66707;SDS011;53622;0.000;0.000;2023-02-28T01:27:46;1.42;;;1.33;;
66707;SDS011;53622;0.000;0.000;2023-02-28T01:30:15;1.42;;;1.33;;
66707;SDS011;53622;0.000;0.000;2023-02-28T01:32:46;1.50;;;1.40;;
66707;SDS011;53622;0.000;0.000;2023-02-28T01:35:18;1.83;;;1.65;;
66707;SDS011;53622;0.000;0.000;2023-02-28T01:37:47;1.60;;;1.33;;
66707;SDS011;53622;0.000;0.000;2023-02-28T01:40:18;1.50;;;1.40;;
66707;SDS011;53622;0.000;0.000;2023-02-28T01:42:47;1.42;;;1.30;;
66707;SDS011;53622;0.000;0.000;2023-02-28T01:45:18;1.60;;;1.40;;
66707;SDS011;53622;0.000;0.000;2023-02-28T01:47:52;1.55;;;1.40;;
66707;SDS011;53622;0.000;0.000;2023-02-28T01:50:26;2.38;;;1.60;;
66707;SDS011;53622;0.000;0.000;2023-02-28T01:53:00;1.88;;;1.50;;
66707;SDS011;53622;0.000;0.000;2023-02-28T01:55:34;1.60;;;1.50;;
66707;SDS011;53622;0.000;0.000;2023-02-28T01:58:04;2.03;;;1.40;;
66707;SDS011;53622;0.000;0.000;2023-02-28T02:00:36;1.90;;;1.60;;
66707;SDS011;53622;0.000;0.000;2023-02-28T02:03:10;1.50;;;1.40;;
66707;SDS011;53622;0.000;0.000;2023-02-28T02:05:43;2.00;;;1.52;;
66707;SDS011;53622;0.000;0.000;2023-02-28T02:08:16;1.77;;;1.60;;
66707;SDS011;53622;0.000;0.000;2023-02-28T02:10:49;2.65;;;1.42;;
66707;SDS011;53622;0.000;0.000;2023-02-28T02:13:25;1.70;;;1.60;;
66707;SDS011;53622;0.000;0.000;2023-02-28T02:16:10;1.40;;;1.30;;
66707;SDS011;53622;0.000;0.000;2023-02-28T02:18:47;1.50;;;1.40;;
66707;SDS011;53622;0.000;0.000;2023-02-28T02:21:32;1.63;;;1.50;;
66707;SDS011;53622;0.000;0.000;2023-02-28T02:27:18;1.67;;;1.52;;
66707;SDS011;53622;0.000;0.000;2023-02-28T02:36:09;1.95;;;1.73;;
66707;SDS011;53622;0.000;0.000;2023-02-28T02:38:47;1.50;;;1.40;;
66707;SDS011;53622;0.000;0.000;2023-02-28T02:41:23;1.50;;;1.40;;
66707;SDS011;53622;0.000;0.000;2023-02-28T02:43:58;1.70;;;1.40;;
66707;SDS011;53622;0.000;0.000;2023-02-28T02:46:34;1.77;;;1.67;;
66707;SDS011;53622;0.000;0.000;2023-02-28T02:49:08;2.97;;;1.63;;
66707;SDS011;53622;0.000;0.000;2023-02-28T02:51:42;1.90;;;1.63;;
66707;SDS011;53622;0.000;0.000;2023-02-28T02:54:15;1.48;;;1.38;;
66707;SDS011;53622;0.000;0.000;2023-02-28T02:56:49;2.55;;;1.40;;
66707;SDS011;53622;0.000;0.000;2023-02-28T02:59:20;1.63;;;1.52;;
66707;SDS011;53622;0.000;0.000;2023-02-28T03:01:51;1.52;;;1.42;;
66707;SDS011;53622;0.000;0.000;2023-02-28T03:04:24;1.70;;;1.60;;
66707;SDS011;53622;0.000;0.000;2023-02-28T03:06:57;1.30;;;1.20;;
66707;SDS011;53622;0.000;0.000;2023-02-28T03:09:27;1.80;;;1.33;;
66707;SDS011;53622;0.000;0.000;2023-02-28T03:11:56;1.65;;;1.40;;
66707;SDS011;53622;0.000;0.000;2023-02-28T03:14:28;1.60;;;1.50;;
66707;SDS011;53622;0.000;0.000;2023-02-28T03:17:17;1.73;;;1.40;;
66707;SDS011;53622;0.000;0.000;2023-02-28T03:19:55;1.67;;;1.58;;
66707;SDS011;53622;0.000;0.000;2023-02-28T03:22:43;1.45;;;1.35;;
66707;SDS011;53622;0.000;0.000;2023-02-28T03:25:21;1.75;;;1.60;;
66707;SDS011;53622;0.000;0.000;2023-02-28T03:28:00;1.67;;;1.58;;
66707;SDS011;53622;0.000;0.000;2023-02-28T03:30:36;1.80;;;1.70;;
66707;SDS011;53622;0.000;0.000;2023-02-28T03:33:11;1.60;;;1.40;;
66707;SDS011;53622;0.000;0.000;2023-02-28T03:35:45;1.95;;;1.77;;
66707;SDS011;53622;0.000;0.000;2023-02-28T03:38:20;1.65;;;1.55;;
66707;SDS011;53622;0.000;0.000;2023-02-28T03:40:55;1.88;;;1.75;;
66707;SDS011;53622;0.000;0.000;2023-02-28T03:43:29;1.50;;;1.40;;
66707;SDS011;53622;0.000;0.000;2023-02-28T03:46:04;2.75;;;1.45;;
66707;SDS011;53622;0.000;0.000;2023-02-28T03:48:39;1.50;;;1.40;;
66707;SDS011;53622;0.000;0.000;2023-02-28T03:51:14;1.70;;;1.60;;
66707;SDS011;53622;0.000;0.000;2023-02-28T03:53:47;1.40;;;1.30;;
66707;SDS011;53622;0.000;0.000;2023-02-28T03:56:20;2.38;;;1.45;;
66707;SDS011;53622;0.000;0.000;2023-02-28T03:58:54;2.00;;;1.40;;
66707;SDS011;53622;0.000;0.000;2023-02-28T04:01:27;1.48;;;1.38;;
66707;SDS011;53622;0.000;0.000;2023-02-28T04:04:03;1.85;;;1.65;;
66707;SDS011;53622;0.000;0.000;2023-02-28T04:06:33;1.80;;;1.70;;
66707;SDS011;53622;0.000;0.000;2023-02-28T04:09:05;1.70;;;1.40;;
66707;SDS011;53622;0.000;0.000;2023-02-28T04:11:35;1.52;;;1.42;;
66707;SDS011;53622;0.000;0.000;2023-02-28T04:14:06;1.60;;;1.50;;
66707;SDS011;53622;0.000;0.000;2023-02-28T04:16:37;2.38;;;1.40;;
66707;SDS011;53622;0.000;0.000;2023-02-28T04:19:09;1.50;;;1.40;;
66707;SDS011;53622;0.000;0.000;2023-02-28T04:21:41;1.65;;;1.55;;
66707;SDS011;53622;0.000;0.000;2023-02-28T04:24:16;3.22;;;1.70;;
66707;SDS011;53622;0.000;0.000;2023-02-28T04:26:46;1.42;;;1.33;;
66707;SDS011;53622;0.000;0.000;2023-02-28T04:29:18;1.65;;;1.55;;
66707;SDS011;53622;0.000;0.000;2023-02-28T04:31:49;2.08;;;1.88;;
66707;SDS011;53622;0.000;0.000;2023-02-28T04:34:20;1.40;;;1.30;;
66707;SDS011;53622;0.000;0.000;2023-02-28T04:36:50;1.60;;;1.42;;
66707;SDS011;53622;0.000;0.000;2023-02-28T04:39:40;1.48;;;1.38;;
66707;SDS011;53622;0.000;0.000;2023-02-28T04:42:10;1.77;;;1.65;;
66707;SDS011;53622;0.000;0.000;2023-02-28T04:44:39;1.63;;;1.52;;
66707;SDS011;53622;0.000;0.000;2023-02-28T04:47:09;1.60;;;1.50;;
66707;SDS011;53622;0.000;0.000;2023-02-28T04:49:38;2.28;;;2.05;;
66707;SDS011;53622;0.000;0.000;2023-02-28T04:52:08;2.17;;;1.70;;
66707;SDS011;53622;0.000;0.000;2023-02-28T04:54:37;1.77;;;1.67;;
66707;SDS011;53622;0.000;0.000;2023-02-28T04:57:08;2.22;;;2.03;;
66707;SDS011;53622;0.000;0.000;2023-02-28T04:59:37;1.70;;;1.60;;
66707;SDS011;53622;0.000;0.000;2023-02-28T05:02:06;3.55;;;2.05;;
66707;SDS011;53622;0.000;0.000;2023-02-28T05:04:36;2.42;;;2.00;;
66707;SDS011;53622;0.000;0.000;2023-02-28T05:07:05;2.00;;;1.90;;
66707;SDS011;53622;0.000;0.000;2023-02-28T05:09:34;4.00;;;1.80;;
66707;SDS011;53622;0.000;0.000;2023-02-28T05:12:05;2.97;;;1.75;;
66707;SDS011;53622;0.000;0.000;2023-02-28T05:14:35;8.00;;;1.90;;
66707;SDS011;53622;0.000;0.000;2023-02-28T05:17:05;10.15;;;2.00;;
66707;SDS011;53622;0.000;0.000;2023-02-28T05:19:34;7.03;;;1.75;;
66707;SDS011;53622;0.000;0.000;2023-02-28T05:22:03;5.72;;;1.85;;
66707;SDS011;53622;0.000;0.000;2023-02-28T05:24:32;3.88;;;1.65;;
66707;SDS011;53622;0.000;0.000;2023-02-28T05:27:02;2.50;;;1.50;;
66707;SDS011;53622;0.000;0.000;2023-02-28T05:29:32;6.20;;;1.45;;
66707;SDS011;53622;0.000;0.000;2023-02-28T05:32:09;1.75;;;1.40;;
66707;SDS011;53622;0.000;0.000;2023-02-28T05:34:39;3.20;;;1.30;;
66707;SDS011;53622;0.000;0.000;2023-02-28T05:37:10;4.78;;;1.80;;
66707;SDS011;53622;0.000;0.000;2023-02-28T05:39:41;6.07;;;1.80;;
66707;SDS011;53622;0.000;0.000;2023-02-28T05:42:11;3.10;;;1.42;;
66707;SDS011;53622;0.000;0.000;2023-02-28T05:44:41;1.98;;;1.30;;
66707;SDS011;53622;0.000;0.000;2023-02-28T05:47:11;4.72;;;1.50;;
66707;SDS011;53622;0.000;0.000;2023-02-28T05:49:42;3.13;;;1.63;;
66707;SDS011;53622;0.000;0.000;2023-02-28T05:52:11;3.85;;;1.40;;
66707;SDS011;53622;0.000;0.000;2023-02-28T05:54:41;4.18;;;1.85;;
66707;SDS011;53622;0.000;0.000;2023-02-28T05:57:10;3.58;;;1.40;;
66707;SDS011;53622;0.000;0.000;2023-02-28T05:59:51;4.57;;;1.73;;
66707;SDS011;53622;0.000;0.000;2023-02-28T06:02:21;2.55;;;1.80;;
66707;SDS011;53622;0.000;0.000;2023-02-28T06:04:50;1.63;;;1.52;;
66707;SDS011;53622;0.000;0.000;2023-02-28T06:07:21;3.13;;;1.88;;
66707;SDS011;53622;0.000;0.000;2023-02-28T06:09:50;3.38;;;2.53;;
66707;SDS011;53622;0.000;0.000;2023-02-28T06:12:19;4.72;;;2.15;;
66707;SDS011;53622;0.000;0.000;2023-02-28T06:14:48;7.38;;;1.90;;
66707;SDS011;53622;0.000;0.000;2023-02-28T06:17:19;2.30;;;2.00;;
66707;SDS011;53622;0.000;0.000;2023-02-28T06:19:48;2.60;;;1.52;;
66707;SDS011;53622;0.000;0.000;2023-02-28T06:22:17;2.75;;;1.73;;
66707;SDS011;53622;0.000;0.000;2023-02-28T06:24:47;2.45;;;2.22;;
66707;SDS011;53622;0.000;0.000;2023-02-28T06:27:16;3.80;;;1.67;;
66707;SDS011;53622;0.000;0.000;2023-02-28T06:29:46;2.38;;;1.98;;
66707;SDS011;53622;0.000;0.000;2023-02-28T06:32:15;1.90;;;1.70;;
66707;SDS011;53622;0.000;0.000;2023-02-28T06:34:46;3.70;;;1.90;;
66707;SDS011;53622;0.000;0.000;2023-02-28T06:37:16;2.60;;;1.80;;
66707;SDS011;53622;0.000;0.000;2023-02-28T06:39:45;2.30;;;2.10;;
66707;SDS011;53622;0.000;0.000;2023-02-28T06:42:14;3.25;;;2.10;;
66707;SDS011;53622;0.000;0.000;2023-02-28T06:44:44;2.03;;;1.77;;
66707;SDS011;53622;0.000;0.000;2023-02-28T06:47:13;3.00;;;1.90;;
66707;SDS011;53622;0.000;0.000;2023-02-28T06:49:42;4.55;;;1.70;;
66707;SDS011;53622;0.000;0.000;2023-02-28T06:52:13;2.28;;;1.83;;
66707;SDS011;53622;0.000;0.000;2023-02-28T06:54:43;2.38;;;1.80;;
66707;SDS011;53622;0.000;0.000;2023-02-28T06:57:12;3.90;;;1.88;;
66707;SDS011;53622;0.000;0.000;2023-02-28T06:59:41;2.30;;;2.10;;
66707;SDS011;53622;0.000;0.000;2023-02-28T07:02:10;3.63;;;1.85;;
66707;SDS011;53622;0.000;0.000;2023-02-28T07:04:40;3.15;;;1.70;;
66707;SDS011;53622;0.000;0.000;2023-02-28T07:07:12;2.42;;;1.80;;
66707;SDS011;53622;0.000;0.000;2023-02-28T07:09:42;1.85;;;1.63;;
66707;SDS011;53622;0.000;0.000;2023-02-28T07:12:12;2.10;;;1.83;;
66707;SDS011;53622;0.000;0.000;2023-02-28T07:14:41;3.53;;;1.95;;
66707;SDS011;53622;0.000;0.000;2023-02-28T07:17:11;1.90;;;1.80;;
66707;SDS011;53622;0.000;0.000;2023-02-28T07:19:40;2.63;;;1.75;;
66707;SDS011;53622;0.000;0.000;2023-02-28T07:22:09;2.40;;;1.80;;
66707;SDS011;53622;0.000;0.000;2023-02-28T07:24:43;1.92;;;1.77;;
66707;SDS011;53622;0.000;0.000;2023-02-28T07:27:12;2.00;;;1.80;;
66707;SDS011;53622;0.000;0.000;2023-02-28T07:29:52;2.00;;;1.65;;
66707;SDS011;53622;0.000;0.000;2023-02-28T07:32:22;2.22;;;1.83;;
66707;SDS011;53622;0.000;0.000;2023-02-28T07:34:51;1.60;;;1.50;;
66707;SDS011;53622;0.000;0.000;2023-02-28T07:37:20;2.47;;;1.55;;
66707;SDS011;53622;0.000;0.000;2023-02-28T07:39:51;1.85;;;1.58;;
66707;SDS011;53622;0.000;0.000;2023-02-28T07:42:21;1.95;;;1.77;;
66707;SDS011;53622;0.000;0.000;2023-02-28T07:44:50;2.17;;;1.70;;
66707;SDS011;53622;0.000;0.000;2023-02-28T07:47:20;1.92;;;1.60;;
66707;SDS011;53622;0.000;0.000;2023-02-28T07:49:51;1.77;;;1.60;;
66707;SDS011;53622;0.000;0.000;2023-02-28T07:52:21;1.92;;;1.63;;
66707;SDS011;53622;0.000;0.000;2023-02-28T07:54:52;1.67;;;1.58;;
66707;SDS011;53622;0.000;0.000;2023-02-28T07:57:22;1.88;;;1.60;;
66707;SDS011;53622;0.000;0.000;2023-02-28T07:59:51;1.77;;;1.67;;
66707;SDS011;53622;0.000;0.000;2023-02-28T08:02:20;1.95;;;1.60;;
66707;SDS011;53622;0.000;0.000;2023-02-28T08:04:49;2.65;;;1.83;;
66707;SDS011;53622;0.000;0.000;2023-02-28T08:07:19;1.73;;;1.60;;
66707;SDS011;53622;0.000;0.000;2023-02-28T08:09:48;1.92;;;1.70;;
66707;SDS011;53622;0.000;0.000;2023-02-28T08:12:19;1.75;;;1.65;;
66707;SDS011;53622;0.000;0.000;2023-02-28T08:14:48;2.38;;;1.48;;
66707;SDS011;53622;0.000;0.000;2023-02-28T08:17:17;1.88;;;1.40;;
66707;SDS011;53622;0.000;0.000;2023-02-28T08:19:47;2.05;;;1.85;;
66707;SDS011;53622;0.000;0.000;2023-02-28T08:22:16;1.65;;;1.52;;
66707;SDS011;53622;0.000;0.000;2023-02-28T08:24:45;1.60;;;1.50;;
66707;SDS011;53622;0.000;0.000;2023-02-28T08:27:15;2.40;;;1.90;;
66707;SDS011;53622;0.000;0.000;2023-02-28T08:29:45;2.15;;;1.45;;
66707;SDS011;53622;0.000;0.000;2023-02-28T08:32:15;2.05;;;1.65;;
66707;SDS011;53622;0.000;0.000;2023-02-28T08:34:56;1.80;;;1.70;;
66707;SDS011;53622;0.000;0.000;2023-02-28T08:37:25;1.85;;;1.70;;
66707;SDS011;53622;0.000;0.000;2023-02-28T08:39:54;1.63;;;1.40;;
66707;SDS011;53622;0.000;0.000;2023-02-28T08:42:24;1.70;;;1.60;;
66707;SDS011;53622;0.000;0.000;2023-02-28T08:44:54;1.67;;;1.55;;
66707;SDS011;53622;0.000;0.000;2023-02-28T08:47:24;2.03;;;1.83;;
66707;SDS011;53622;0.000;0.000;2023-02-28T08:49:53;1.90;;;1.80;;
66707;SDS011;53622;0.000;0.000;2023-02-28T08:52:23;1.75;;;1.30;;
66707;SDS011;53622;0.000;0.000;2023-02-28T08:54:52;3.47;;;1.70;;
66707;SDS011;53622;0.000;0.000;2023-02-28T08:57:21;1.58;;;1.48;;
66707;SDS011;53622;0.000;0.000;2023-02-28T08:59:54;1.83;;;1.50;;
66707;SDS011;53622;0.000;0.000;2023-02-28T09:02:24;2.72;;;2.13;;
66707;SDS011;53622;0.000;0.000;2023-02-28T09:04:53;2.05;;;1.73;;
66707;SDS011;53622;0.000;0.000;2023-02-28T09:07:23;1.80;;;1.67;;
66707;SDS011;53622;0.000;0.000;2023-02-28T09:09:52;1.70;;;1.60;;
66707;SDS011;53622;0.000;0.000;2023-02-28T09:12:25;2.88;;;1.42;;
66707;SDS011;53622;0.000;0.000;2023-02-28T09:14:57;1.70;;;1.50;;
66707;SDS011;53622;0.000;0.000;2023-02-28T09:17:26;1.48;;;1.38;;
66707;SDS011;53622;0.000;0.000;2023-02-28T09:19:57;1.70;;;1.60;;
66707;SDS011;53622;0.000;0.000;2023-02-28T09:22:26;1.95;;;1.50;;
66707;SDS011;53622;0.000;0.000;2023-02-28T09:24:55;1.70;;;1.60;;
66707;SDS011;53622;0.000;0.000;2023-02-28T09:27:24;1.80;;;1.70;;
66707;SDS011;53622;0.000;0.000;2023-02-28T09:29:54;1.90;;;1.80;;
66707;SDS011;53622;0.000;0.000;2023-02-28T09:32:24;1.40;;;1.30;;
66707;SDS011;53622;0.000;0.000;2023-02-28T09:34:54;1.73;;;1.63;;
66707;SDS011;53622;0.000;0.000;2023-02-28T09:37:23;1.70;;;1.60;;
66707;SDS011;53622;0.000;0.000;2023-02-28T09:39:56;1.55;;;1.45;;
66707;SDS011;53622;0.000;0.000;2023-02-28T09:42:28;2.05;;;1.67;;
66707;SDS011;53622;0.000;0.000;2023-02-28T09:45:02;4.18;;;1.70;;
66707;SDS011;53622;0.000;0.000;2023-02-28T09:47:41;3.85;;;2.00;;
66707;SDS011;53622;0.000;0.000;2023-02-28T09:50:16;2.08;;;1.50;;
66707;SDS011;53622;0.000;0.000;2023-02-28T09:52:50;2.72;;;1.55;;
66707;SDS011;53622;0.000;0.000;2023-02-28T09:55:20;4.07;;;1.70;;
66707;SDS011;53622;0.000;0.000;2023-02-28T09:57:58;2.70;;;1.40;;
66707;SDS011;53622;0.000;0.000;2023-02-28T10:00:30;3.08;;;1.42;;
66707;SDS011;53622;0.000;0.000;2023-02-28T10:03:10;2.03;;;1.50;;
66707;SDS011;53622;0.000;0.000;2023-02-28T10:06:00;3.08;;;1.50;;
66707;SDS011;53622;0.000;0.000;2023-02-28T10:08:36;2.33;;;1.30;;
66707;SDS011;53622;0.000;0.000;2023-02-28T10:11:13;3.70;;;1.40;;
66707;SDS011;53622;0.000;0.000;2023-02-28T10:13:52;2.00;;;1.23;;
66707;SDS011;53622;0.000;0.000;2023-02-28T10:16:29;1.63;;;1.52;;
66707;SDS011;53622;0.000;0.000;2023-02-28T10:19:04;1.77;;;1.50;;
66707;SDS011;53622;0.000;0.000;2023-02-28T10:21:42;2.50;;;1.40;;
66707;SDS011;53622;0.000;0.000;2023-02-28T10:24:19;1.88;;;1.27;;
66707;SDS011;53622;0.000;0.000;2023-02-28T10:26:52;1.40;;;1.30;;
66707;SDS011;53622;0.000;0.000;2023-02-28T10:29:25;2.35;;;1.13;;
66707;SDS011;53622;0.000;0.000;2023-02-28T10:31:55;1.35;;;1.08;;
66707;SDS011;53622;0.000;0.000;2023-02-28T10:34:25;2.22;;;1.52;;
66707;SDS011;53622;0.000;0.000;2023-02-28T10:36:55;1.17;;;1.00;;
66707;SDS011;53622;0.000;0.000;2023-02-28T10:39:35;4.18;;;1.40;;
66707;SDS011;53622;0.000;0.000;2023-02-28T10:42:18;1.40;;;1.20;;
66707;SDS011;53622;0.000;0.000;2023-02-28T10:44:49;1.38;;;1.27;;
66707;SDS011;53622;0.000;0.000;2023-02-28T10:47:33;1.33;;;1.20;;
66707;SDS011;53622;0.000;0.000;2023-02-28T10:50:08;2.70;;;1.20;;
66707;SDS011;53622;0.000;0.000;2023-02-28T10:52:56;1.20;;;1.10;;
66707;SDS011;53622;0.000;0.000;2023-02-28T10:55:39;3.47;;;1.25;;
66707;SDS011;53622;0.000;0.000;2023-02-28T10:58:18;4.25;;;1.60;;
66707;SDS011;53622;0.000;0.000;2023-02-28T11:00:50;7.28;;;1.80;;
66707;SDS011;53622;0.000;0.000;2023-02-28T11:03:24;5.53;;;1.83;;
66707;SDS011;53622;0.000;0.000;2023-02-28T11:06:04;4.25;;;1.60;;
66707;SDS011;53622;0.000;0.000;2023-02-28T11:08:42;6.25;;;1.70;;
66707;SDS011;53622;0.000;0.000;2023-02-28T11:11:14;6.38;;;1.73;;
66707;SDS011;53622;0.000;0.000;2023-02-28T11:13:45;6.38;;;1.55;;
66707;SDS011;53622;0.000;0.000;2023-02-28T11:16:17;4.53;;;1.90;;
66707;SDS011;53622;0.000;0.000;2023-02-28T11:18:47;3.25;;;1.88;;
66707;SDS011;53622;0.000;0.000;2023-02-28T11:21:22;9.75;;;1.77;;
66707;SDS011;53622;0.000;0.000;2023-02-28T11:24:00;3.80;;;1.67;;
66707;SDS011;53622;0.000;0.000;2023-02-28T11:26:36;11.13;;;3.42;;
66707;SDS011;53622;0.000;0.000;2023-02-28T11:29:12;10.02;;;2.80;;
66707;SDS011;53622;0.000;0.000;2023-02-28T11:32:04;7.10;;;2.55;;
66707;SDS011;53622;0.000;0.000;2023-02-28T11:34:42;8.18;;;3.13;;
66707;SDS011;53622;0.000;0.000;2023-02-28T11:37:14;8.93;;;2.80;;
66707;SDS011;53622;0.000;0.000;2023-02-28T11:39:46;6.85;;;2.70;;
66707;SDS011;53622;0.000;0.000;2023-02-28T11:45:20;4.28;;;1.83;;
66707;SDS011;53622;0.000;0.000;2023-02-28T11:47:59;6.47;;;2.08;;
66707;SDS011;53622;0.000;0.000;2023-02-28T11:50:39;6.03;;;1.98;;
66707;SDS011;53622;0.000;0.000;2023-02-28T11:53:19;5.80;;;2.13;;
66707;SDS011;53622;0.000;0.000;2023-02-28T11:55:54;4.05;;;1.88;;
66707;SDS011;53622;0.000;0.000;2023-02-28T11:58:34;2.38;;;1.63;;
66707;SDS011;53622;0.000;0.000;2023-02-28T12:01:17;2.85;;;1.73;;
66707;SDS011;53622;0.000;0.000;2023-02-28T12:04:01;6.95;;;2.00;;
66707;SDS011;53622;0.000;0.000;2023-02-28T12:06:42;4.78;;;2.30;;
66707;SDS011;53622;0.000;0.000;2023-02-28T12:09:31;2.22;;;1.70;;
66707;SDS011;53622;0.000;0.000;2023-02-28T12:12:14;4.88;;;1.80;;
66707;SDS011;53622;0.000;0.000;2023-02-28T12:15:11;2.95;;;1.60;;
66707;SDS011;53622;0.000;0.000;2023-02-28T12:17:56;3.75;;;1.65;;
66707;SDS011;53622;0.000;0.000;2023-02-28T12:20:39;2.15;;;1.33;;
66707;SDS011;53622;0.000;0.000;2023-02-28T12:23:19;1.98;;;1.52;;
66707;SDS011;53622;0.000;0.000;2023-02-28T12:26:09;2.78;;;1.60;;
66707;SDS011;53622;0.000;0.000;2023-02-28T12:28:45;2.70;;;1.48;;
66707;SDS011;53622;0.000;0.000;2023-02-28T12:31:20;2.72;;;1.65;;
66707;SDS011;53622;0.000;0.000;2023-02-28T12:33:53;3.70;;;1.77;;
66707;SDS011;53622;0.000;0.000;2023-02-28T12:36:27;2.45;;;1.88;;
66707;SDS011;53622;0.000;0.000;2023-02-28T12:38:58;2.90;;;1.60;;
66707;SDS011;53622;0.000;0.000;2023-02-28T12:41:33;3.65;;;1.73;;
66707;SDS011;53622;0.000;0.000;2023-02-28T12:44:08;3.70;;;1.67;;
66707;SDS011;53622;0.000;0.000;2023-02-28T12:46:41;4.00;;;1.50;;
66707;SDS011;53622;0.000;0.000;2023-02-28T12:49:13;4.00;;;1.90;;
66707;SDS011;53622;0.000;0.000;2023-02-28T12:51:46;2.38;;;1.58;;
66707;SDS011;53622;0.000;0.000;2023-02-28T12:54:19;2.45;;;1.60;;
66707;SDS011;53622;0.000;0.000;2023-02-28T12:56:56;3.53;;;1.40;;
66707;SDS011;53622;0.000;0.000;2023-02-28T12:59:35;2.33;;;1.63;;
66707;SDS011;53622;0.000;0.000;2023-02-28T13:05:19;2.50;;;1.70;;
66707;SDS011;53622;0.000;0.000;2023-02-28T13:08:03;1.50;;;1.38;;
66707;SDS011;53622;0.000;0.000;2023-02-28T13:10:50;2.20;;;1.60;;
66707;SDS011;53622;0.000;0.000;2023-02-28T13:13:24;2.95;;;1.52;;
66707;SDS011;53622;0.000;0.000;2023-02-28T13:16:03;1.80;;;1.48;;
66707;SDS011;53622;0.000;0.000;2023-02-28T13:18:35;3.45;;;1.33;;
66707;SDS011;53622;0.000;0.000;2023-02-28T13:21:07;1.83;;;1.27;;
66707;SDS011;53622;0.000;0.000;2023-02-28T13:23:55;2.58;;;1.55;;
66707;SDS011;53622;0.000;0.000;2023-02-28T13:29:38;2.05;;;1.40;;
66707;SDS011;53622;0.000;0.000;2023-02-28T13:32:19;1.50;;;1.20;;
66707;SDS011;53622;0.000;0.000;2023-02-28T13:38:23;2.67;;;1.50;;
66707;SDS011;53622;0.000;0.000;2023-02-28T13:44:23;1.55;;;1.40;;
66707;SDS011;53622;0.000;0.000;2023-02-28T13:49:52;1.88;;;1.27;;
66707;SDS011;53622;0.000;0.000;2023-02-28T13:52:22;1.77;;;1.35;;
66707;SDS011;53622;0.000;0.000;2023-02-28T13:55:03;2.05;;;1.23;;
66707;SDS011;53622;0.000;0.000;2023-02-28T13:57:53;1.27;;;1.08;;
66707;SDS011;53622;0.000;0.000;2023-02-28T14:00:44;2.83;;;1.30;;
66707;SDS011;53622;0.000;0.000;2023-02-28T14:03:36;6.20;;;1.70;;
66707;SDS011;53622;0.000;0.000;2023-02-28T14:06:18;7.93;;;1.88;;
66707;SDS011;53622;0.000;0.000;2023-02-28T14:08:55;5.25;;;1.55;;
66707;SDS011;53622;0.000;0.000;2023-02-28T14:11:31;4.13;;;2.28;;
66707;SDS011;53622;0.000;0.000;2023-02-28T14:14:02;4.25;;;2.10;;
66707;SDS011;53622;0.000;0.000;2023-02-28T14:16:53;2.17;;;1.70;;
66707;SDS011;53622;0.000;0.000;2023-02-28T14:19:26;3.28;;;1.40;;
66707;SDS011;53622;0.000;0.000;2023-02-28T14:22:01;5.90;;;1.60;;
66707;SDS011;53622;0.000;0.000;2023-02-28T14:25:00;5.10;;;1.55;;
66707;SDS011;53622;0.000;0.000;2023-02-28T14:27:41;2.00;;;1.35;;
66707;SDS011;53622;0.000;0.000;2023-02-28T14:33:19;3.13;;;1.70;;
66707;SDS011;53622;0.000;0.000;2023-02-28T14:35:58;2.55;;;1.50;;
66707;SDS011;53622;0.000;0.000;2023-02-28T14:38:35;2.20;;;1.27;;
66707;SDS011;53622;0.000;0.000;2023-02-28T14:41:12;2.72;;;1.50;;
66707;SDS011;53622;0.000;0.000;2023-02-28T14:43:52;2.85;;;1.88;;
66707;SDS011;53622;0.000;0.000;2023-02-28T14:46:24;2.13;;;1.65;;
66707;SDS011;53622;0.000;0.000;2023-02-28T14:48:57;1.83;;;1.60;;
66707;SDS011;53622;0.000;0.000;2023-02-28T14:51:28;1.77;;;1.58;;
66707;SDS011;53622;0.000;0.000;2023-02-28T14:53:58;2.33;;;1.50;;
66707;SDS011;53622;0.000;0.000;2023-02-28T14:56:31;1.80;;;1.67;;
66707;SDS011;53622;0.000;0.000;2023-02-28T14:59:04;2.45;;;1.60;;
66707;SDS011;53622;0.000;0.000;2023-02-28T15:01:52;2.30;;;1.70;;
66707;SDS011;53622;0.000;0.000;2023-02-28T15:04:56;2.35;;;1.60;;
66707;SDS011;53622;0.000;0.000;2023-02-28T15:07:29;4.00;;;1.55;;
66707;SDS011;53622;0.000;0.000;2023-02-28T15:10:13;3.85;;;1.80;;
66707;SDS011;53622;0.000;0.000;2023-02-28T15:12:49;1.73;;;1.48;;
66707;SDS011;53622;0.000;0.000;2023-02-28T15:15:23;3.88;;;1.70;;
66707;SDS011;53622;0.000;0.000;2023-02-28T15:18:14;3.25;;;1.75;;
66707;SDS011;53622;0.000;0.000;2023-02-28T15:20:50;2.20;;;1.70;;
66707;SDS011;53622;0.000;0.000;2023-02-28T15:23:21;1.73;;;1.60;;
66707;SDS011;53622;0.000;0.000;2023-02-28T15:25:51;1.77;;;1.65;;
66707;SDS011;53622;0.000;0.000;2023-02-28T15:28:22;1.67;;;1.58;;
66707;SDS011;53622;0.000;0.000;2023-02-28T15:30:54;1.83;;;1.65;;
66707;SDS011;53622;0.000;0.000;2023-02-28T15:33:26;2.33;;;1.60;;
66707;SDS011;53622;0.000;0.000;2023-02-28T15:36:04;2.53;;;1.50;;
66707;SDS011;53622;0.000;0.000;2023-02-28T15:38:37;1.55;;;1.45;;
66707;SDS011;53622;0.000;0.000;2023-02-28T15:41:16;2.15;;;1.58;;
66707;SDS011;53622;0.000;0.000;2023-02-28T15:46:43;3.58;;;1.42;;
66707;SDS011;53622;0.000;0.000;2023-02-28T15:49:22;1.90;;;1.80;;
66707;SDS011;53622;0.000;0.000;2023-02-28T15:51:52;2.45;;;1.50;;
66707;SDS011;53622;0.000;0.000;2023-02-28T15:54:27;2.47;;;1.40;;
66707;SDS011;53622;0.000;0.000;2023-02-28T15:57:00;1.88;;;1.48;;
66707;SDS011;53622;0.000;0.000;2023-02-28T15:59:33;1.55;;;1.45;;
66707;SDS011;53622;0.000;0.000;2023-02-28T16:02:14;1.58;;;1.48;;
66707;SDS011;53622;0.000;0.000;2023-02-28T16:05:16;1.73;;;1.45;;
66707;SDS011;53622;0.000;0.000;2023-02-28T16:07:55;4.47;;;1.60;;
66707;SDS011;53622;0.000;0.000;2023-02-28T16:10:27;6.07;;;1.63;;
66707;SDS011;53622;0.000;0.000;2023-02-28T16:12:58;7.60;;;1.48;;